createdAt,value
2023-05-14T00:02:04.043Z,13.10
2023-05-14T00:05:41.613Z,13.17
2023-05-14T00:09:19.927Z,13.21
2023-05-14T00:12:57.074Z,13.23
2023-05-14T00:16:34.668Z,13.25
2023-05-14T00:20:12.773Z,13.28
2023-05-14T00:23:50.028Z,13.33
2023-05-14T00:27:27.945Z,13.33
2023-05-14T00:31:05.294Z,13.32
2023-05-14T00:34:43.082Z,13.31
2023-05-14T00:38:21.159Z,13.30
2023-05-14T00:41:58.380Z,13.29
2023-05-14T00:45:36.138Z,13.29
2023-05-14T00:49:14.681Z,13.28
2023-05-14T00:52:51.352Z,13.26
2023-05-14T00:56:30.031Z,13.23
2023-05-14T01:00:07.730Z,13.21
2023-05-14T01:04:06.166Z,13.19
2023-05-14T01:07:53.311Z,13.19
2023-05-14T01:11:19.449Z,13.19
2023-05-14T01:14:49.310Z,13.18
2023-05-14T01:18:25.385Z,13.18
2023-05-14T01:22:01.492Z,13.19
2023-05-14T01:25:39.749Z,13.20
2023-05-14T01:29:22.757Z,13.21
2023-05-14T01:32:59.037Z,13.21
2023-05-14T01:36:33.748Z,13.21
2023-05-14T01:40:11.739Z,13.20
2023-05-14T01:43:48.113Z,13.22
2023-05-14T01:47:26.018Z,13.20
2023-05-14T01:51:04.246Z,13.18
2023-05-14T01:54:41.257Z,13.15
2023-05-14T01:58:18.858Z,13.11
2023-05-14T02:01:56.330Z,13.04
2023-05-14T02:05:33.926Z,12.95
2023-05-14T02:09:12.102Z,12.90
2023-05-14T02:12:49.734Z,12.86
2023-05-14T02:16:27.105Z,12.81
2023-05-14T02:20:05.038Z,12.74
2023-05-14T02:23:43.134Z,12.65
2023-05-14T02:27:19.952Z,12.58
2023-05-14T02:31:00.197Z,12.53
2023-05-14T02:34:35.798Z,12.51
2023-05-14T02:38:13.366Z,12.50
2023-05-14T02:41:50.623Z,12.50
2023-05-14T02:45:28.469Z,12.49
2023-05-14T02:49:06.499Z,12.49
2023-05-14T02:52:43.780Z,12.45
2023-05-14T02:56:21.412Z,12.42
2023-05-14T02:59:59.089Z,12.41
2023-05-14T03:03:36.797Z,12.40
2023-05-14T03:07:14.465Z,12.38
2023-05-14T03:10:52.011Z,12.38
2023-05-14T03:14:29.757Z,12.36
2023-05-14T03:18:07.541Z,12.34
2023-05-14T03:21:45.141Z,12.30
2023-05-14T03:25:22.582Z,12.27
2023-05-14T03:29:00.526Z,12.23
2023-05-14T03:32:38.317Z,12.16
2023-05-14T03:36:15.997Z,12.10
2023-05-14T03:39:53.284Z,12.04
2023-05-14T03:43:31.290Z,12.00
2023-05-14T03:47:08.685Z,11.97
2023-05-14T03:50:46.617Z,11.96
2023-05-14T03:54:23.911Z,11.99
2023-05-14T03:58:02.740Z,12.04
2023-05-14T04:01:39.216Z,12.09
2023-05-14T04:05:17.347Z,12.17
2023-05-14T04:08:54.890Z,12.21
2023-05-14T04:12:32.980Z,12.23
2023-05-14T04:16:10.431Z,12.23
2023-05-14T04:19:48.183Z,12.24
2023-05-14T04:23:25.774Z,12.29
2023-05-14T04:27:04.461Z,12.36
2023-05-14T04:30:40.747Z,12.47
2023-05-14T04:34:20.860Z,12.56
2023-05-14T04:37:56.088Z,12.63
2023-05-14T04:41:33.948Z,12.68
2023-05-14T04:45:13.626Z,12.73
2023-05-14T04:48:50.522Z,12.85
2023-05-14T04:52:26.997Z,13.00
2023-05-14T04:56:05.092Z,13.17
2023-05-14T04:59:42.518Z,13.39
2023-05-14T05:03:20.201Z,13.62
2023-05-14T05:06:57.693Z,13.81
2023-05-14T05:10:35.145Z,13.99
2023-05-14T05:14:12.915Z,14.18
2023-05-14T05:17:50.651Z,14.31
2023-05-14T05:21:28.277Z,14.48
2023-05-14T05:25:07.239Z,14.71
2023-05-14T05:28:43.515Z,14.98
2023-05-14T05:32:21.579Z,15.26
2023-05-14T05:35:58.911Z,15.51
2023-05-14T05:39:37.007Z,15.71
2023-05-14T05:43:15.717Z,15.86
2023-05-14T05:46:52.109Z,16.03
2023-05-14T05:50:31.865Z,16.22
2023-05-14T05:54:07.425Z,16.42
2023-05-14T05:57:45.131Z,16.64
2023-05-14T06:01:22.825Z,16.87
2023-05-14T06:05:00.546Z,17.10
2023-05-14T06:08:38.228Z,17.28
2023-05-14T06:12:16.224Z,17.45
2023-05-14T06:15:53.552Z,17.60
2023-05-14T06:19:32.250Z,17.72
2023-05-14T06:23:08.814Z,17.77
2023-05-14T06:26:46.464Z,17.88
2023-05-14T06:30:24.802Z,18.06
2023-05-14T06:34:01.896Z,18.25
2023-05-14T06:37:39.845Z,18.33
2023-05-14T06:41:17.709Z,18.38
2023-05-14T06:44:57.171Z,18.50
2023-05-14T06:48:33.012Z,18.53
2023-05-14T06:52:10.523Z,18.53
2023-05-14T06:55:48.885Z,18.52
2023-05-14T06:59:26.529Z,18.55
2023-05-14T07:03:03.492Z,18.76
2023-05-14T07:06:41.110Z,19.00
2023-05-14T07:10:19.104Z,19.30
2023-05-14T07:13:56.627Z,19.59
2023-05-14T07:17:34.307Z,19.66
2023-05-14T07:21:12.302Z,19.64
2023-05-14T07:24:50.242Z,19.61
2023-05-14T07:28:26.997Z,19.57
2023-05-14T07:32:04.978Z,19.43
2023-05-14T07:39:20.470Z,19.27
2023-05-14T07:42:59.239Z,19.34
2023-05-14T07:46:37.442Z,19.34
2023-05-14T07:50:22.619Z,19.42
2023-05-14T07:53:51.566Z,19.37
2023-05-14T07:57:28.356Z,19.24
2023-05-14T08:01:12.413Z,19.09
2023-05-14T08:05:03.966Z,19.20
2023-05-14T08:08:21.968Z,19.38
2023-05-14T08:12:01.539Z,19.36
2023-05-14T08:15:37.537Z,19.37
2023-05-14T08:19:17.438Z,19.44
2023-05-14T08:22:52.182Z,19.43
2023-05-14T08:26:29.742Z,19.48
2023-05-14T08:30:09.377Z,19.57
2023-05-14T08:33:52.046Z,19.63
2023-05-14T08:37:51.502Z,19.64
2023-05-14T08:41:01.073Z,19.68
2023-05-14T08:45:04.173Z,19.78
2023-05-14T08:48:23.114Z,19.90
2023-05-14T08:51:57.729Z,19.89
2023-05-14T08:55:37.792Z,19.97
2023-05-14T08:59:13.897Z,20.00
2023-05-14T09:02:52.095Z,20.14
2023-05-14T09:06:29.138Z,20.24
2023-05-14T09:10:06.961Z,20.21
2023-05-14T09:13:43.680Z,20.26
2023-05-14T09:17:21.450Z,20.32
2023-05-14T09:20:59.128Z,20.36
2023-05-14T09:24:36.532Z,20.30
2023-05-14T09:28:17.950Z,20.25
2023-05-14T09:31:52.635Z,20.23
2023-05-14T09:35:32.732Z,20.27
2023-05-14T09:39:10.618Z,20.27
2023-05-14T09:42:45.711Z,20.37
2023-05-14T09:46:32.562Z,20.37
2023-05-14T09:50:05.630Z,20.38
2023-05-14T09:53:41.643Z,20.33
2023-05-14T09:57:15.566Z,20.34
2023-05-14T10:00:54.749Z,20.34
2023-05-14T10:04:33.506Z,20.33
2023-05-14T10:08:20.065Z,20.37
2023-05-14T10:15:40.935Z,20.45
2023-05-14T10:19:08.122Z,20.43
2023-05-14T10:22:40.392Z,20.47
2023-05-14T10:26:17.903Z,20.48
2023-05-14T10:29:56.576Z,20.40
2023-05-14T10:33:48.366Z,20.34
2023-05-14T10:37:25.775Z,20.23
2023-05-14T10:40:48.512Z,20.14
2023-05-14T10:44:26.124Z,20.06
2023-05-14T10:48:03.490Z,19.95
2023-05-14T10:51:42.551Z,19.88
2023-05-14T10:55:19.104Z,19.85
2023-05-14T10:59:00.173Z,19.90
2023-05-14T11:02:40.601Z,19.99
2023-05-14T11:06:14.703Z,20.08
2023-05-14T11:09:51.546Z,20.08
2023-05-14T11:13:27.708Z,20.03
2023-05-14T11:17:06.822Z,20.00
2023-05-14T11:20:42.569Z,20.00
2023-05-14T11:24:20.089Z,20.00
2023-05-14T11:28:00.921Z,20.05
2023-05-14T11:31:36.039Z,20.22
2023-05-14T11:35:14.250Z,20.43
2023-05-14T11:38:52.501Z,20.61
2023-05-14T11:42:28.638Z,20.54
2023-05-14T11:46:06.504Z,20.32
2023-05-14T11:49:43.974Z,20.11
2023-05-14T11:53:31.141Z,19.93
2023-05-14T11:57:02.532Z,19.75
2023-05-14T12:00:38.248Z,19.58
2023-05-14T12:04:14.772Z,19.40
2023-05-14T12:07:52.650Z,19.26
2023-05-14T12:11:33.115Z,19.08
2023-05-14T12:15:13.516Z,18.89
2023-05-14T12:18:45.249Z,18.74
2023-05-14T12:22:23.585Z,18.63
2023-05-14T12:26:06.706Z,18.65
2023-05-14T12:29:39.128Z,18.67
2023-05-14T12:33:16.585Z,18.74
2023-05-14T12:37:12.506Z,18.84
2023-05-14T12:40:31.281Z,18.92
2023-05-14T12:44:09.866Z,19.01
2023-05-14T12:48:06.246Z,19.05
2023-05-14T12:51:24.435Z,19.08
2023-05-14T12:55:02.046Z,19.25
2023-05-14T12:58:40.149Z,19.22
2023-05-14T13:02:17.997Z,19.14
2023-05-14T13:05:55.447Z,19.08
2023-05-14T13:09:32.832Z,19.00
2023-05-14T13:13:11.998Z,18.95
2023-05-14T13:20:28.326Z,18.97
2023-05-14T13:24:03.490Z,18.98
2023-05-14T13:27:41.303Z,19.01
2023-05-14T13:31:18.502Z,19.10
2023-05-14T13:34:56.989Z,19.24
2023-05-14T13:38:34.800Z,19.23
2023-05-14T13:42:11.786Z,19.17
2023-05-14T13:45:51.516Z,19.13
2023-05-14T13:49:27.578Z,19.03
2023-05-14T13:53:05.047Z,18.94
2023-05-14T13:56:42.666Z,18.77
2023-05-14T14:00:20.165Z,18.60
2023-05-14T14:03:58.503Z,18.52
2023-05-14T14:07:35.699Z,18.48
2023-05-14T14:11:13.987Z,18.45
2023-05-14T14:14:53.085Z,18.40
2023-05-14T14:18:28.559Z,18.31
2023-05-14T14:22:06.390Z,18.25
2023-05-14T14:25:43.961Z,18.21
2023-05-14T14:29:24.146Z,18.21
2023-05-14T14:33:01.487Z,18.23
2023-05-14T14:36:38.283Z,18.26
2023-05-14T14:40:34.008Z,18.25
2023-05-14T14:43:52.592Z,18.17
2023-05-14T14:47:30.497Z,18.06
2023-05-14T14:51:11.642Z,18.01
2023-05-14T14:54:45.162Z,18.00
2023-05-14T14:58:24.009Z,17.94
2023-05-14T15:02:00.684Z,17.71
2023-05-14T15:05:38.494Z,17.60
2023-05-14T15:09:16.363Z,17.50
2023-05-14T15:12:54.675Z,17.41
2023-05-14T15:16:31.825Z,17.43
2023-05-14T15:20:10.616Z,17.47
2023-05-14T15:23:47.042Z,17.48
2023-05-14T15:27:24.626Z,17.44
2023-05-14T15:31:21.712Z,17.43
2023-05-14T15:35:49.367Z,17.45
2023-05-14T15:39:10.474Z,17.53
2023-05-14T15:42:44.257Z,17.59
2023-05-14T15:46:21.844Z,17.64
2023-05-14T15:49:57.995Z,17.72
2023-05-14T15:53:35.503Z,17.71
2023-05-14T15:57:14.025Z,17.66
2023-05-14T16:00:51.346Z,17.66
2023-05-14T16:04:28.710Z,17.67
2023-05-14T16:08:07.057Z,17.63
2023-05-14T16:11:43.914Z,17.51
2023-05-14T16:15:21.630Z,17.36
2023-05-14T16:18:59.604Z,17.20
2023-05-14T16:22:37.482Z,17.09
2023-05-14T16:26:14.534Z,17.03
2023-05-14T16:29:52.387Z,17.02
2023-05-14T16:33:29.999Z,17.02
2023-05-14T16:37:08.222Z,16.92
2023-05-14T16:40:45.540Z,16.83
2023-05-14T16:44:23.195Z,16.79
2023-05-14T16:48:01.567Z,16.72
2023-05-14T16:51:43.165Z,16.64
2023-05-14T16:55:16.606Z,16.60
2023-05-14T16:58:54.038Z,16.56
2023-05-14T17:02:33.268Z,16.52
2023-05-14T17:06:10.259Z,16.48
2023-05-14T17:09:46.872Z,16.46
2023-05-14T17:13:24.297Z,16.43
2023-05-14T17:17:02.456Z,16.41
2023-05-14T17:20:40.014Z,16.40
2023-05-14T17:24:17.221Z,16.39
2023-05-14T17:27:55.065Z,16.35
2023-05-14T17:31:32.849Z,16.27
2023-05-14T17:35:11.844Z,16.18
2023-05-14T17:38:48.485Z,16.14
2023-05-14T17:42:25.932Z,16.12
2023-05-14T17:46:03.993Z,16.11
2023-05-14T17:49:40.984Z,16.11
2023-05-14T17:53:19.132Z,16.12
2023-05-14T17:56:56.864Z,16.10
2023-05-14T18:00:34.683Z,16.05
2023-05-14T18:04:12.314Z,16.01
2023-05-14T18:07:49.542Z,15.98
2023-05-14T18:11:46.523Z,15.92
2023-05-14T18:15:05.135Z,15.87
2023-05-14T18:18:42.845Z,15.79
2023-05-14T18:22:21.751Z,15.75
2023-05-14T18:25:58.093Z,15.74
2023-05-14T18:29:35.452Z,15.73
2023-05-14T18:33:13.226Z,15.70
2023-05-14T18:36:51.125Z,15.65
2023-05-14T18:40:28.887Z,15.55
2023-05-14T18:44:06.404Z,15.40
2023-05-14T18:47:43.981Z,15.30
2023-05-14T18:51:21.661Z,15.24
2023-05-14T18:54:59.614Z,15.21
2023-05-14T18:58:37.093Z,15.14
2023-05-14T19:02:15.265Z,15.03
2023-05-14T19:05:53.935Z,14.93
2023-05-14T19:09:30.317Z,14.85
2023-05-14T19:13:07.918Z,14.75
2023-05-14T19:16:45.149Z,14.68
2023-05-14T19:20:23.181Z,14.64
2023-05-14T19:24:00.543Z,14.60
2023-05-14T19:27:38.942Z,14.53
2023-05-14T19:31:16.253Z,14.44
2023-05-14T19:34:53.717Z,14.35
2023-05-14T19:38:31.598Z,14.30
2023-05-14T19:42:09.198Z,14.29
2023-05-14T19:45:47.056Z,14.29
2023-05-14T19:49:24.454Z,14.26
2023-05-14T19:53:02.227Z,14.23
2023-05-14T19:56:40.552Z,14.17
2023-05-14T20:00:17.713Z,14.10
2023-05-14T20:03:55.258Z,14.06
2023-05-14T20:07:54.146Z,14.02
2023-05-14T20:11:10.192Z,13.98
2023-05-14T20:14:48.315Z,13.93
2023-05-14T20:18:26.111Z,13.91
2023-05-14T20:22:03.946Z,13.91
2023-05-14T20:25:41.660Z,13.91
2023-05-14T20:29:18.646Z,13.88
2023-05-14T20:32:56.795Z,13.83
2023-05-14T20:36:34.735Z,13.73
2023-05-14T20:40:14.485Z,13.60
2023-05-14T20:43:49.558Z,13.49
2023-05-14T20:47:30.552Z,13.44
2023-05-14T20:51:06.799Z,13.40
2023-05-14T20:54:43.223Z,13.36
2023-05-14T20:58:20.999Z,13.33
2023-05-14T21:01:58.537Z,13.30
2023-05-14T21:05:35.416Z,13.31
2023-05-14T21:09:13.499Z,13.35
2023-05-14T21:12:51.758Z,13.43
2023-05-14T21:16:28.566Z,13.50
2023-05-14T21:20:07.061Z,13.61
2023-05-14T21:24:02.963Z,13.74
2023-05-14T21:27:40.290Z,13.90
2023-05-14T21:30:59.375Z,14.10
2023-05-14T21:34:36.735Z,14.40
2023-05-14T21:38:15.040Z,14.75
2023-05-14T21:41:52.193Z,14.96
2023-05-14T21:45:29.944Z,15.02
2023-05-14T21:49:07.513Z,15.04
2023-05-14T21:52:45.560Z,15.02
2023-05-14T21:56:22.973Z,14.97
2023-05-14T22:00:00.961Z,14.99
2023-05-14T22:03:38.399Z,15.08
2023-05-14T22:07:16.330Z,15.18
2023-05-14T22:10:53.671Z,15.22
2023-05-14T22:14:31.595Z,15.21
2023-05-14T22:18:08.987Z,15.19
2023-05-14T22:21:47.042Z,15.20
2023-05-14T22:25:24.427Z,15.20
2023-05-14T22:29:02.198Z,15.17
2023-05-14T22:32:39.940Z,15.15
2023-05-14T22:36:17.618Z,15.12
2023-05-14T22:39:54.924Z,15.09
2023-05-14T22:43:32.972Z,15.08
2023-05-14T22:47:10.735Z,15.05
2023-05-14T22:50:47.980Z,15.02
2023-05-14T22:54:25.543Z,15.00
2023-05-14T22:58:04.082Z,14.97
2023-05-14T23:01:41.163Z,14.93
2023-05-14T23:05:18.720Z,14.90
2023-05-14T23:08:56.397Z,14.87
2023-05-14T23:12:34.184Z,14.84
2023-05-14T23:16:11.727Z,14.75
2023-05-14T23:19:49.589Z,14.68
2023-05-14T23:23:26.996Z,14.63
2023-05-14T23:27:05.366Z,14.60
2023-05-14T23:30:42.537Z,14.56
2023-05-14T23:34:22.180Z,14.53
2023-05-14T23:37:57.722Z,14.48
2023-05-14T23:41:35.645Z,14.43
2023-05-14T23:45:13.875Z,14.39
2023-05-14T23:48:52.371Z,14.38
2023-05-14T23:52:28.678Z,14.37
2023-05-14T23:56:06.482Z,14.34
2023-05-14T23:59:46.257Z,14.31
